Time;durP1;ratioP1;P1;durP2;ratioP2;P2;SDS_P1;SDS_P2;PMS_P1;PMS_P2;Temp;Humidity;BMP_temperature;BMP_pressure;BME280_temperature;BME280_humidity;BME280_pressure;Samples;Min_cycle;Max_cycle;Signal;HPM_P1;HPM_P2
2022/06/13 02:43:32;;;;;;;6.40;5.80;;;;;;;18.70;79.44;99029.62;1800913;79;23010;-48
2022/06/13 02:46:12;;;;;;;9.33;6.20;;;;;;;18.66;78.67;99028.70;1761624;81;21054;-52
2022/06/13 02:48:55;;;;;;;7.85;6.03;;;;;;;18.66;78.48;99032.19;1761318;81;21550;-52
2022/06/13 02:51:47;;;;;;;13.72;5.65;;;;;;;18.61;77.08;99031.81;1761747;81;20991;-54
2022/06/13 02:54:47;;;;;;;7.17;5.42;;;;;;;18.57;78.03;99027.73;1761665;81;21007;-53
2022/06/13 02:58:02;;;;;;;6.37;5.33;;;;;;;18.56;77.21;99029.55;1761819;81;20964;-55
2022/06/13 03:00:42;;;;;;;6.12;4.65;;;;;;;18.56;76.20;99032.22;1761680;80;20995;-57
2022/06/13 03:03:19;;;;;;;8.58;4.60;;;;;;;18.59;76.24;99029.28;1760135;81;20995;-56
2022/06/13 03:05:59;;;;;;;8.38;4.72;;;;;;;18.56;77.28;99023.40;1761815;81;21464;-53
2022/06/13 03:08:42;;;;;;;6.65;5.17;;;;;;;18.55;76.40;99022.54;1761754;80;20963;-57
2022/06/13 03:11:45;;;;;;;9.03;5.15;;;;;;;18.55;76.66;99019.05;1761409;80;21026;-54
2022/06/13 03:14:22;;;;;;;9.50;5.12;;;;;;;18.56;76.36;99018.08;1761706;81;20967;-51
2022/06/13 03:17:14;;;;;;;8.58;4.97;;;;;;;18.55;77.02;99017.71;1761854;81;21096;-56
2022/06/13 03:20:12;;;;;;;8.20;4.90;;;;;;;18.51;77.34;99025.64;1761726;81;20992;-53
2022/06/13 03:23:21;;;;;;;6.35;5.40;;;;;;;18.51;76.93;99026.98;1761706;81;20991;-50
2022/06/13 03:25:57;;;;;;;6.15;5.12;;;;;;;18.46;78.92;99017.23;1761738;81;20989;-51
2022/06/13 03:28:52;;;;;;;6.35;5.30;;;;;;;18.50;78.56;99017.30;1761846;81;21472;-50
2022/06/13 03:31:29;;;;;;;8.48;4.92;;;;;;;18.56;77.50;99026.06;1761119;81;20959;-57
2022/06/13 03:34:00;;;;;;;6.87;4.90;;;;;;;18.60;77.28;99022.12;1761812;81;21546;-56
2022/06/13 03:36:39;;;;;;;7.80;5.22;;;;;;;18.58;77.52;99020.09;1761730;80;20986;-52
2022/06/13 03:39:19;;;;;;;9.40;5.37;;;;;;;18.61;77.18;99011.83;1761674;80;21038;-53
2022/06/13 03:41:53;;;;;;;16.45;5.35;;;;;;;18.58;77.95;99007.62;1758590;80;21326;-54
2022/06/13 03:44:29;;;;;;;6.78;5.33;;;;;;;18.60;78.23;98996.83;1748392;81;21050;-54
2022/06/13 03:47:04;;;;;;;8.25;4.95;;;;;;;18.59;78.84;98993.80;1748866;81;20992;-52
2022/06/13 03:49:56;;;;;;;6.58;5.00;;;;;;;18.61;79.19;98999.35;1748620;81;21132;-54
2022/06/13 03:52:26;;;;;;;8.93;4.90;;;;;;;18.61;79.09;98993.19;1748626;81;20995;-53
2022/06/13 03:55:05;;;;;;;6.70;4.83;;;;;;;18.62;79.44;98989.53;1748029;82;20972;-57
2022/06/13 03:57:55;;;;;;;7.17;5.35;;;;;;;18.64;80.42;98982.23;1748104;81;21002;-55
2022/06/13 04:00:28;;;;;;;5.62;4.90;;;;;;;18.61;79.56;98975.38;1747815;81;21042;-51
2022/06/13 04:02:56;;;;;;;8.65;4.85;;;;;;;18.66;79.09;98966.11;1748083;81;21465;-55
2022/06/13 04:05:40;;;;;;;10.53;4.80;;;;;;;18.70;80.63;98973.69;1737504;82;20996;-51
2022/06/13 04:08:10;;;;;;;7.75;4.53;;;;;;;18.71;79.66;98971.34;1748142;81;21442;-56
2022/06/13 04:11:16;;;;;;;5.22;4.55;;;;;;;18.74;79.43;98964.41;1748050;82;21019;-55
2022/06/13 04:13:56;;;;;;;5.92;4.20;;;;;;;18.76;79.14;98958.94;1747992;81;20987;-54
2022/06/13 04:17:03;;;;;;;6.35;4.10;;;;;;;18.78;78.66;98959.13;1747873;81;21019;-53
2022/06/13 04:20:12;;;;;;;5.92;3.80;;;;;;;18.85;78.26;98966.59;1747992;81;20953;-54
2022/06/13 04:22:52;;;;;;;10.35;4.33;;;;;;;18.86;79.27;98958.93;1746489;81;21465;-53
2022/06/13 04:25:38;;;;;;;5.20;3.75;;;;;;;18.86;78.03;98945.61;1748060;81;20991;-52
2022/06/13 04:28:24;;;;;;;6.23;3.67;;;;;;;18.84;77.25;98932.93;1748341;81;21176;-51
2022/06/13 04:30:53;;;;;;;9.00;3.67;;;;;;;18.84;77.25;98932.93;1748031;81;21508;-52
2022/06/13 04:33:33;;;;;;;9.00;3.70;;;;;;;18.91;78.86;98944.19;1748085;81;21461;-52
2022/06/13 04:36:00;;;;;;;5.22;3.45;;;;;;;18.96;78.66;98943.76;1736578;82;21485;-55
2022/06/13 04:38:28;;;;;;;5.00;3.52;;;;;;;19.02;77.65;98940.49;1748139;82;20991;-54
2022/06/13 04:40:58;;;;;;;3.72;3.10;;;;;;;19.09;77.77;98947.41;1748060;81;20987;-54
2022/06/13 04:43:28;;;;;;;4.08;3.22;;;;;;;19.15;77.12;98943.64;1748043;81;21063;-53
2022/06/13 04:46:20;;;;;;;4.33;3.30;;;;;;;19.19;75.60;98946.85;1748051;81;21453;-56
2022/06/13 04:48:50;;;;;;;9.55;3.42;;;;;;;19.24;75.40;98946.42;1748029;81;21047;-57
2022/06/13 04:51:23;;;;;;;7.40;3.20;;;;;;;19.27;75.47;98949.63;1747925;81;20987;-54
2022/06/13 04:54:04;;;;;;;6.50;3.27;;;;;;;19.29;74.86;98946.31;1747602;81;20996;-53
2022/06/13 04:56:31;;;;;;;4.58;3.02;;;;;;;19.33;74.12;98937.02;1748042;81;20988;-55
2022/06/13 04:58:59;;;;;;;8.58;3.33;;;;;;;19.40;73.92;98931.94;1748115;82;20984;-51
2022/06/13 05:01:36;;;;;;;3.22;2.50;;;;;;;19.41;73.14;98930.97;1748066;81;20992;-52
2022/06/13 05:04:06;;;;;;;3.62;2.55;;;;;;;19.44;73.78;98921.31;1748191;81;20972;-55
2022/06/13 05:06:52;;;;;;;7.10;2.80;;;;;;;19.46;73.73;98919.33;1748005;82;21035;-52
2022/06/13 05:09:23;;;;;;;5.53;3.20;;;;;;;19.50;72.97;98911.86;1748055;82;20976;-57
2022/06/13 05:11:57;;;;;;;11.18;2.77;;;;;;;19.53;72.62;98900.40;1748005;81;21525;-55
2022/06/13 05:14:47;;;;;;;3.20;2.87;;;;;;;19.56;73.34;98896.61;1723952;81;21541;-57
2022/06/13 05:17:44;;;;;;;5.75;2.80;;;;;;;19.63;73.33;98896.81;1746137;82;20984;-55
2022/06/13 05:20:59;;;;;;;7.05;2.75;;;;;;;19.66;73.25;98893.86;1747508;81;20991;-51
2022/06/13 05:23:51;;;;;;;4.53;2.60;;;;;;;19.72;73.35;98901.27;1748042;81;21031;-55
2022/06/13 05:26:17;;;;;;;3.12;2.60;;;;;;;19.85;72.47;98919.08;1747294;81;21513;-55
2022/06/13 05:28:43;;;;;;;17.10;3.27;;;;;;;19.89;69.97;98920.95;1748304;81;21034;-52
2022/06/13 05:31:19;;;;;;;4.67;2.50;;;;;;;19.89;69.97;98920.95;1748005;81;21423;-52
2022/06/13 05:33:47;;;;;;;6.50;2.42;;;;;;;19.98;70.59;98920.53;1747983;81;21457;-53
2022/06/13 05:36:17;;;;;;;5.08;2.22;;;;;;;20.06;70.16;98914.73;1748010;81;20991;-57
2022/06/13 05:38:57;;;;;;;6.58;2.47;;;;;;;20.09;69.81;98918.95;1748097;81;21004;-50
2022/06/13 05:41:23;;;;;;;3.47;2.30;;;;;;;20.14;70.24;98911.31;1747988;81;20960;-58
2022/06/13 05:43:48;;;;;;;2.55;1.90;;;;;;;20.13;68.54;98908.29;1759192;80;21369;-53
2022/06/13 05:46:19;;;;;;;10.18;2.50;;;;;;;20.18;68.97;98911.34;1761371;81;21805;-47
2022/06/13 05:48:50;;;;;;;3.75;2.12;;;;;;;20.20;69.24;98909.34;1761171;81;21043;-51
2022/06/13 05:51:15;;;;;;;5.47;2.15;;;;;;;20.23;68.60;98909.05;1761325;81;21011;-49
2022/06/13 05:53:41;;;;;;;4.90;2.27;;;;;;;20.28;68.57;98914.76;1761370;81;21023;-52
2022/06/13 05:56:10;;;;;;;3.10;2.50;;;;;;;20.26;69.26;98906.55;1761315;81;20992;-50
2022/06/13 05:58:36;;;;;;;12.03;2.92;;;;;;;20.30;68.73;98905.23;1761387;80;20999;-55
2022/06/13 06:01:02;;;;;;;7.00;2.70;;;;;;;20.27;67.90;98906.39;1761540;81;21007;-57
2022/06/13 06:03:28;;;;;;;6.55;2.50;;;;;;;20.30;68.12;98914.10;1761372;81;21587;-53
2022/06/13 06:05:55;;;;;;;3.47;2.98;;;;;;;20.31;68.55;98918.43;1761247;80;21046;-48
2022/06/13 06:08:24;;;;;;;4.72;2.77;;;;;;;20.31;68.34;98925.11;1761449;81;20971;-57
2022/06/13 06:10:53;;;;;;;7.17;2.52;;;;;;;20.31;69.40;98921.61;1761497;81;20999;-54
2022/06/13 06:13:19;;;;;;;3.70;2.98;;;;;;;20.23;69.66;98922.39;1761312;81;21504;-57
2022/06/13 06:15:47;;;;;;;6.03;2.90;;;;;;;20.12;69.39;98925.32;1761278;81;21457;-55
2022/06/13 06:18:15;;;;;;;5.03;3.08;;;;;;;20.12;69.23;98921.31;1761256;81;21058;-54
2022/06/13 06:20:42;;;;;;;6.75;3.37;;;;;;;20.13;70.07;98909.63;1761258;81;21034;-58
2022/06/13 06:23:09;;;;;;;5.07;3.13;;;;;;;20.12;70.24;98918.64;1761656;81;21026;-53
2022/06/13 06:25:35;;;;;;;7.97;2.77;;;;;;;20.01;69.72;98918.86;1761398;81;21011;-56
2022/06/13 06:28:03;;;;;;;7.35;2.40;;;;;;;19.96;69.08;98906.00;1761292;81;21132;-54
2022/06/13 06:30:29;;;;;;;7.58;2.60;;;;;;;19.96;69.15;98905.17;1761300;81;20985;-52
2022/06/13 06:32:56;;;;;;;6.00;2.90;;;;;;;19.91;68.45;98902.45;1761231;80;21372;-52
2022/06/13 06:35:24;;;;;;;13.75;3.40;;;;;;;19.96;69.05;98909.17;1761410;81;21493;-58
2022/06/13 06:37:52;;;;;;;5.30;2.52;;;;;;;19.97;69.03;98913.50;1761317;81;20991;-51
2022/06/13 06:40:21;;;;;;;16.35;2.80;;;;;;;20.01;69.16;98922.87;1761321;80;20971;-58
2022/06/13 06:42:47;;;;;;;21.57;3.87;;;;;;;19.99;68.84;98916.84;1757193;81;21020;-59
2022/06/13 06:45:13;;;;;;;8.53;2.37;;;;;;;20.01;69.09;98913.05;1747931;81;20991;-50
2022/06/13 06:47:40;;;;;;;11.17;3.60;;;;;;;19.91;68.67;98922.97;1748294;81;21510;-49
2022/06/13 06:50:13;;;;;;;14.47;2.55;;;;;;;19.92;68.56;98928.16;1748084;82;21031;-51
2022/06/13 06:52:40;;;;;;;6.17;2.40;;;;;;;19.87;68.43;98933.61;1747578;81;21558;-54
2022/06/13 07:00:41;;;;;;;36.90;12.88;;;;;;;19.77;69.07;98914.99;1747945;82;21087;-51
2022/06/13 07:03:06;;;;;;;10.15;3.92;;;;;;;19.78;69.49;98916.69;1747909;81;20961;-53
2022/06/13 07:05:32;;;;;;;68.52;9.40;;;;;;;19.79;69.86;98923.67;1747926;81;21155;-58
2022/06/13 07:07:58;;;;;;;19.77;4.60;;;;;;;19.77;69.88;98917.66;1747949;81;20999;-59
2022/06/13 07:10:24;;;;;;;6.70;3.25;;;;;;;19.77;69.89;98928.33;1747864;81;20968;-58
2022/06/13 07:12:49;;;;;;;9.30;2.87;;;;;;;19.77;70.79;98933.67;1747933;81;20995;-58
2022/06/13 07:15:15;;;;;;;5.25;2.60;;;;;;;19.71;70.65;98935.59;1748108;81;21035;-53
2022/06/13 07:17:41;;;;;;;6.05;2.65;;;;;;;19.67;71.25;98928.89;1747998;81;21497;-56
2022/06/13 07:20:09;;;;;;;7.90;2.35;;;;;;;19.66;70.39;98935.20;1748023;81;20980;-59
2022/06/13 07:22:35;;;;;;;2.77;2.12;;;;;;;19.66;70.72;98927.20;1747892;82;21116;-57
2022/06/13 07:25:01;;;;;;;9.45;2.17;;;;;;;19.65;70.41;98922.88;1747897;81;21038;-55
2022/06/13 07:27:26;;;;;;;6.58;2.33;;;;;;;19.62;69.84;98908.50;1747925;81;21007;-51
2022/06/13 07:29:52;;;;;;;2.72;2.15;;;;;;;19.64;69.71;98887.84;1748009;81;20984;-55
2022/06/13 07:32:23;;;;;;;3.12;1.90;;;;;;;19.59;69.14;98905.62;1748074;81;20991;-55
2022/06/13 07:34:52;;;;;;;2.42;2.17;;;;;;;19.55;68.66;98903.78;1747786;81;20992;-53
2022/06/13 07:40:10;;;;;;;34.75;4.53;;;;;;;19.60;68.52;98921.16;1747220;81;21469;-56
2022/06/13 07:42:47;;;;;;;8.73;2.77;;;;;;;19.67;68.77;98910.22;1746735;82;20983;-58
2022/06/13 07:45:17;;;;;;;8.55;4.12;;;;;;;19.74;67.95;98905.98;1751307;82;21018;-57
2022/06/13 07:47:44;;;;;;;9.08;2.50;;;;;;;19.77;67.89;98884.81;1751776;81;20952;-59
2022/06/13 07:50:14;;;;;;;8.25;2.33;;;;;;;19.75;67.33;98880.96;1751826;82;21011;-56
2022/06/13 07:52:40;;;;;;;5.10;2.27;;;;;;;19.69;67.35;98873.55;1751685;81;20971;-56
2022/06/13 07:55:07;;;;;;;6.83;2.47;;;;;;;19.67;67.87;98882.21;1751908;82;21163;-59
2022/06/13 07:57:33;;;;;;;5.15;2.50;;;;;;;19.59;68.08;98882.95;1751793;81;20972;-55
2022/06/13 08:00:00;;;;;;;5.37;2.10;;;;;;;19.65;68.32;98886.86;1751733;82;20972;-57
2022/06/13 08:02:30;;;;;;;4.00;2.50;;;;;;;19.67;68.26;98887.04;1751679;82;21460;-56
2022/06/13 08:04:56;;;;;;;7.28;2.37;;;;;;;19.71;67.86;98882.23;1751782;81;21007;-55
2022/06/13 08:07:21;;;;;;;11.38;3.40;;;;;;;19.68;67.22;98867.39;1751869;82;21453;-56
2022/06/13 08:09:47;;;;;;;6.75;2.42;;;;;;;19.76;67.79;98879.98;1751825;82;20987;-55
2022/06/13 08:12:17;;;;;;;8.40;2.35;;;;;;;19.84;67.48;98885.88;1751647;82;21002;-56
2022/06/13 08:14:47;;;;;;;4.95;2.20;;;;;;;19.80;67.32;98876.01;1751972;82;20975;-59
2022/06/13 08:17:12;;;;;;;8.18;2.20;;;;;;;19.90;67.29;98867.91;1751489;82;21637;-56
2022/06/13 08:19:38;;;;;;;6.47;2.98;;;;;;;19.88;66.14;98875.23;1751810;82;21512;-58
2022/06/13 08:22:04;;;;;;;4.08;1.98;;;;;;;19.86;66.02;98864.70;1751670;82;21023;-58
2022/06/13 08:24:30;;;;;;;3.75;2.30;;;;;;;19.86;65.92;98871.38;1751660;82;21006;-57
2022/06/13 08:26:56;;;;;;;5.95;2.08;;;;;;;19.89;66.31;98868.41;1751800;82;21611;-58
2022/06/13 08:29:21;;;;;;;5.95;2.05;;;;;;;19.94;65.41;98869.30;1751639;82;21485;-54
2022/06/13 08:31:47;;;;;;;1.82;1.60;;;;;;;20.05;65.53;98875.71;1751717;81;21035;-59
2022/06/13 08:34:13;;;;;;;4.30;1.42;;;;;;;20.14;65.28;98871.27;1751586;81;21003;-58
2022/06/13 08:36:39;;;;;;;5.50;2.00;;;;;;;20.23;65.09;98877.48;1751646;82;21023;-57
2022/06/13 08:39:05;;;;;;;3.72;1.90;;;;;;;20.35;65.11;98873.56;1751695;82;21019;-56
2022/06/13 08:41:42;;;;;;;2.47;1.90;;;;;;;20.45;64.31;98882.82;1751337;82;20998;-55
2022/06/13 08:44:35;;;;;;;7.40;1.80;;;;;;;20.54;64.23;98877.86;1737587;81;21035;-54
2022/06/13 08:47:18;;;;;;;4.05;1.60;;;;;;;20.64;64.36;98885.27;1738897;82;20972;-59
2022/06/13 08:49:58;;;;;;;3.27;1.55;;;;;;;20.70;63.74;98882.45;1738947;82;21003;-55
2022/06/13 08:52:33;;;;;;;6.67;1.80;;;;;;;20.79;63.46;98886.87;1739272;81;21008;-57
2022/06/13 08:55:07;;;;;;;3.70;1.70;;;;;;;20.88;63.00;98893.06;1739330;82;20996;-54
2022/06/13 08:57:36;;;;;;;5.83;1.90;;;;;;;20.89;62.88;98891.56;1739389;82;21492;-57
2022/06/13 09:00:14;;;;;;;5.60;1.95;;;;;;;20.87;62.59;98894.08;1739264;82;21644;-59
2022/06/13 09:03:03;;;;;;;2.45;1.80;;;;;;;20.89;62.71;98900.09;1738989;82;21486;-58
2022/06/13 09:05:43;;;;;;;3.75;1.87;;;;;;;20.95;62.91;98893.27;1739157;82;20992;-58
2022/06/13 09:08:17;;;;;;;2.65;1.57;;;;;;;20.97;62.55;98889.92;1739269;82;21003;-56
2022/06/13 09:11:00;;;;;;;5.47;1.70;;;;;;;20.97;61.81;98895.27;1739281;82;20988;-59
2022/06/13 09:13:54;;;;;;;7.53;2.30;;;;;;;20.96;61.92;98897.63;1739372;82;21031;-58
2022/06/13 09:16:28;;;;;;;4.72;1.98;;;;;;;20.97;62.17;98894.77;1739402;82;21011;-55
2022/06/13 09:19:20;;;;;;;5.75;2.22;;;;;;;21.02;62.32;98891.62;1739075;82;21500;-59
2022/06/13 09:22:10;;;;;;;5.62;1.82;;;;;;;21.01;62.10;98902.83;1739252;81;21675;-53
2022/06/13 09:25:06;;;;;;;3.83;2.17;;;;;;;21.00;62.00;98893.63;1739212;82;21004;-55
2022/06/13 09:28:02;;;;;;;;;;;;;;;20.92;61.82;98894.44;1741776;81;20991;-55
2022/06/13 09:30:35;;;;;;;6.25;1.92;;;;;;;20.89;63.32;98898.76;1723540;82;20389;-53
2022/06/13 09:33:18;;;;;;;4.58;2.15;;;;;;;20.86;62.74;98895.06;1739378;82;20988;-55
2022/06/13 09:35:49;;;;;;;7.53;2.27;;;;;;;20.84;62.57;98895.22;1742509;81;20996;-56
2022/06/13 09:38:30;;;;;;;3.72;2.15;;;;;;;20.81;62.74;98900.05;1749215;81;21007;-56
2022/06/13 09:41:26;;;;;;;3.67;2.60;;;;;;;20.78;63.03;98899.05;1743861;81;20956;-59
2022/06/13 09:44:31;;;;;;;6.10;2.60;;;;;;;20.52;64.25;98891.37;1735599;81;21508;-59
2022/06/13 09:47:43;;;;;;;4.67;3.27;;;;;;;20.62;64.22;98887.27;1762893;80;20990;-60
2022/06/13 09:50:38;;;;;;;7.08;2.55;;;;;;;20.63;64.45;98888.95;1763073;81;20959;-56
2022/06/13 09:53:41;;;;;;;3.50;2.83;;;;;;;20.59;65.58;98896.06;1762944;81;21046;-57
2022/06/13 09:56:15;;;;;;;11.08;2.83;;;;;;;20.41;66.06;98896.98;1757636;81;21532;-60
2022/06/13 09:59:14;;;;;;;5.25;3.15;;;;;;;20.35;66.80;98884.75;1747424;81;21492;-58
2022/06/13 10:01:59;;;;;;;7.10;2.92;;;;;;;20.33;66.96;98896.92;1747013;81;21003;-58
2022/06/13 10:05:01;;;;;;;4.00;3.05;;;;;;;20.21;68.61;98899.02;1747133;82;21485;-57
2022/06/13 10:07:50;;;;;;;6.72;3.37;;;;;;;19.91;69.80;98894.95;1746902;81;21030;-58
2022/06/13 10:10:21;;;;;;;35.05;7.42;;;;;;;19.90;69.29;98891.45;1709770;82;21495;-52
2022/06/13 10:13:01;;;;;;;9.08;4.42;;;;;;;19.85;71.46;98890.23;1709840;83;20981;-57
2022/06/13 10:16:02;;;;;;;10.93;4.50;;;;;;;19.88;70.19;98897.44;1710363;84;21020;-59
2022/06/13 10:18:57;;;;;;;7.10;4.45;;;;;;;19.79;71.56;98899.66;1709408;84;21025;-54
2022/06/13 10:21:47;;;;;;;7.20;4.65;;;;;;;19.77;71.55;98904.32;1709786;84;21052;-55
2022/06/13 10:24:47;;;;;;;5.33;4.30;;;;;;;19.73;70.90;98906.45;1710084;83;21173;-57
2022/06/13 10:27:33;;;;;;;8.90;4.53;;;;;;;19.55;73.42;98910.45;1709355;84;21494;-59
2022/06/13 10:30:34;;;;;;;7.97;5.45;;;;;;;19.53;72.72;98905.73;1709352;84;21502;-57
2022/06/13 10:33:31;;;;;;;7.53;4.80;;;;;;;19.59;73.02;98908.79;1710012;84;20990;-54
2022/06/13 10:36:12;;;;;;;7.17;5.00;;;;;;;19.64;72.99;98907.84;1709169;84;21594;-57
2022/06/13 10:38:58;;;;;;;8.05;5.50;;;;;;;19.70;73.25;98907.22;1710176;84;21033;-61
2022/06/13 10:41:26;;;;;;;11.85;6.45;;;;;;;19.79;73.18;98910.34;1706915;84;21076;-58
2022/06/13 10:43:54;;;;;;;9.00;6.40;;;;;;;19.83;72.51;98906.39;1708696;83;21041;-57
2022/06/13 10:46:20;;;;;;;12.18;5.70;;;;;;;20.03;71.91;98891.05;1704989;84;21614;-56
2022/06/13 10:48:58;;;;;;;6.75;5.30;;;;;;;20.17;72.06;98886.95;1754031;82;21528;-59
2022/06/13 10:51:24;;;;;;;;;;;;;;;20.26;71.22;98886.02;1757173;80;20999;-58
2022/06/13 10:54:08;;;;;;;6.25;5.28;;;;;;;20.11;71.14;98881.75;1755366;80;20112;-61
2022/06/13 10:56:50;;;;;;;7.50;4.67;;;;;;;20.06;71.31;98887.22;1754746;81;20959;-59
2022/06/13 10:59:29;;;;;;;6.95;3.47;;;;;;;19.96;69.18;98919.84;1750466;81;21449;-62
2022/06/13 11:02:06;;;;;;;7.92;2.70;;;;;;;19.69;66.34;98922.40;1754507;81;21071;-57
2022/06/13 11:04:36;;;;;;;;;;;;;;;19.42;65.40;98915.30;1755406;82;20980;-61
2022/06/13 11:07:13;;;;;;;10.45;2.90;;;;;;;19.14;65.69;98920.66;1755357;81;20524;-59
2022/06/13 11:09:50;;;;;;;6.05;2.92;;;;;;;19.21;66.87;98924.05;1755267;81;20996;-58
2022/06/13 11:12:24;;;;;;;6.78;2.60;;;;;;;18.91;65.96;98910.87;1754726;81;21660;-57
2022/06/13 11:23:58;;;;;;;12.53;3.15;;;;;;;18.38;68.41;98904.81;1755319;82;21023;-59
2022/06/13 11:29:18;;;;;;;13.13;5.08;;;;;;;18.06;69.36;98881.20;1755324;82;20975;-60
2022/06/13 11:31:55;;;;;;;10.10;4.35;;;;;;;17.80;71.66;98872.45;1755355;82;20972;-57
2022/06/13 11:34:32;;;;;;;13.62;4.92;;;;;;;17.64;74.36;98881.85;1754696;81;21014;-57
2022/06/13 11:37:19;;;;;;;10.25;4.90;;;;;;;17.79;74.34;98890.70;1755173;81;21019;-59
2022/06/13 11:39:47;;;;;;;5.50;4.90;;;;;;;17.70;75.93;98892.41;1755462;82;21023;-56
2022/06/13 11:42:28;;;;;;;9.15;4.50;;;;;;;17.68;75.60;98888.20;1755201;82;20999;-60
2022/06/13 11:45:03;;;;;;;9.13;4.33;;;;;;;17.47;77.84;98886.52;1757708;81;21509;-60
2022/06/13 11:47:47;;;;;;;12.68;3.37;;;;;;;17.38;77.84;98896.16;1759824;81;21015;-59
2022/06/13 11:50:27;;;;;;;6.53;3.25;;;;;;;17.29;78.78;98906.28;1760576;81;21034;-58
2022/06/13 11:55:54;;;;;;;6.37;2.95;;;;;;;17.10;78.23;98904.91;1760441;81;21002;-58
2022/06/13 11:58:34;;;;;;;9.18;3.40;;;;;;;17.02;78.93;98929.50;1760395;81;21484;-54
2022/06/13 12:01:23;;;;;;;4.67;3.50;;;;;;;16.77;80.50;98967.47;1760811;81;20976;-55
2022/06/13 12:04:15;;;;;;;6.90;3.70;;;;;;;16.74;81.39;98986.31;1760689;81;21054;-60
2022/06/13 12:06:51;;;;;;;4.35;3.17;;;;;;;16.60;84.22;98988.80;1760691;81;21128;-54
2022/06/13 12:09:31;;;;;;;6.60;3.30;;;;;;;16.66;83.30;98992.28;1743378;81;21157;-55
2022/06/13 12:12:00;;;;;;;5.97;3.65;;;;;;;16.63;84.17;99001.00;1760270;81;20971;-57
2022/06/13 12:14:32;;;;;;;5.83;3.08;;;;;;;16.57;84.59;98992.20;1760766;80;20998;-61
2022/06/13 12:17:19;;;;;;;3.30;2.92;;;;;;;16.55;84.39;98996.81;1760554;80;21468;-60
2022/06/13 12:20:11;;;;;;;10.03;3.80;;;;;;;16.53;84.40;98998.75;1761331;81;21014;-57
2022/06/13 12:22:48;;;;;;;8.35;3.33;;;;;;;16.49;84.36;98998.17;1756523;81;21531;-54
2022/06/13 12:25:29;;;;;;;5.25;3.08;;;;;;;16.51;83.57;99010.33;1760924;81;20991;-59
2022/06/13 12:28:12;;;;;;;6.40;2.62;;;;;;;16.46;84.20;98999.75;1761033;81;21324;-57
2022/06/13 12:31:11;;;;;;;5.30;3.00;;;;;;;16.41;84.44;99008.12;1761256;81;21050;-58
2022/06/13 12:34:15;;;;;;;2.92;2.40;;;;;;;16.43;83.35;99005.34;1760995;81;20995;-55
2022/06/13 12:36:47;;;;;;;5.33;2.80;;;;;;;16.31;83.87;99004.54;1760723;80;20943;-57
2022/06/13 12:39:48;;;;;;;7.58;2.80;;;;;;;16.31;85.45;99012.50;1760901;81;21027;-58
2022/06/13 12:42:49;;;;;;;3.08;2.67;;;;;;;16.28;85.45;99010.09;1760820;81;20979;-59
2022/06/13 12:45:49;;;;;;;6.33;3.00;;;;;;;16.36;84.61;99022.25;1766292;80;21611;-58
2022/06/13 12:48:23;;;;;;;5.37;3.15;;;;;;;16.38;84.07;99028.27;1761612;81;21467;-55
2022/06/13 12:51:03;;;;;;;4.30;3.17;;;;;;;16.33;83.79;99030.45;1762019;80;20994;-58
2022/06/13 12:53:47;;;;;;;2.75;2.45;;;;;;;16.29;84.88;99029.87;1762215;81;20995;-55
2022/06/13 12:56:22;;;;;;;4.22;2.92;;;;;;;16.27;84.00;99021.69;1762698;81;21484;-58
2022/06/13 12:59:41;;;;;;;4.58;3.02;;;;;;;16.21;85.44;99010.25;1760896;81;21045;-56
2022/06/13 13:02:15;;;;;;;6.45;3.10;;;;;;;16.15;84.74;99016.91;1762619;81;21035;-58
2022/06/13 13:04:55;;;;;;;5.90;2.62;;;;;;;16.14;83.79;99022.36;1761536;80;21029;-56
2022/06/13 13:07:27;;;;;;;6.50;3.00;;;;;;;16.15;83.40;99018.72;1761492;81;21021;-59
2022/06/13 13:10:05;;;;;;;4.53;2.50;;;;;;;16.12;84.47;99011.38;1761918;81;21082;-54
2022/06/13 13:13:09;;;;;;;10.32;3.08;;;;;;;16.12;83.90;99008.73;1761821;80;21014;-57
2022/06/13 13:15:52;;;;;;;5.72;2.35;;;;;;;16.07;84.87;99002.13;1657019;85;21489;-57
2022/06/13 13:18:35;;;;;;;4.37;3.00;;;;;;;15.99;85.35;98970.94;1732561;82;21170;-53
2022/06/13 13:21:29;;;;;;;7.12;3.35;;;;;;;16.01;85.53;98967.67;1728151;83;21065;-59
2022/06/13 13:24:23;;;;;;;5.25;2.52;;;;;;;16.10;84.23;98980.16;1722918;83;21554;-61
2022/06/13 13:27:06;;;;;;;3.47;2.77;;;;;;;16.09;84.17;98982.45;1722622;82;21025;-54
2022/06/13 13:29:48;;;;;;;3.95;2.47;;;;;;;16.11;84.95;98980.50;1723208;82;21001;-59
2022/06/13 13:32:28;;;;;;;2.75;2.17;;;;;;;16.09;85.76;98973.16;1722578;83;21014;-56
2022/06/13 13:35:31;;;;;;;2.15;1.95;;;;;;;15.93;84.26;98962.14;1723167;83;20997;-54
2022/06/13 13:38:21;;;;;;;3.60;2.20;;;;;;;15.96;83.82;98959.25;1722794;82;21527;-61
2022/06/13 13:41:04;;;;;;;5.45;2.00;;;;;;;15.97;83.39;98952.99;1722367;82;21106;-57
2022/06/13 13:43:42;;;;;;;3.72;2.17;;;;;;;15.96;83.03;98942.02;1722612;83;21464;-60
2022/06/13 13:46:23;;;;;;;;;;;;;;;16.02;83.24;98945.47;1720021;82;21075;-54
2022/06/13 13:49:03;;;;;;;3.52;2.67;;;;;;;16.07;86.41;98932.67;1717945;83;20427;-58
2022/06/13 13:51:44;;;;;;;5.45;2.98;;;;;;;16.09;83.36;98940.01;1717980;82;21035;-56
2022/06/13 13:54:36;;;;;;;7.33;2.80;;;;;;;16.06;84.64;98923.05;1717613;83;21004;-58
2022/06/13 13:57:13;;;;;;;4.67;2.30;;;;;;;16.12;84.13;98918.54;1717815;82;20988;-54
2022/06/13 13:59:44;;;;;;;5.58;2.92;;;;;;;16.17;83.50;98906.69;1717727;82;21164;-58
2022/06/13 14:02:28;;;;;;;5.17;2.95;;;;;;;16.22;83.16;98904.00;1718007;82;20999;-56
2022/06/13 14:05:08;;;;;;;5.05;2.60;;;;;;;16.35;83.51;98926.84;1717441;83;21136;-54
2022/06/13 14:08:09;;;;;;;6.90;3.25;;;;;;;16.43;84.31;98941.64;1717762;82;21019;-59
2022/06/13 14:10:46;;;;;;;6.50;3.22;;;;;;;16.48;84.07;98941.60;1717756;82;21501;-59
2022/06/13 14:13:20;;;;;;;3.62;2.85;;;;;;;16.57;83.61;98944.42;1730341;81;20960;-54
2022/06/13 14:15:55;;;;;;;4.28;2.55;;;;;;;16.65;83.38;98953.91;1764439;81;21031;-58
2022/06/13 14:18:30;;;;;;;2.58;2.08;;;;;;;16.66;82.04;98952.92;1749708;81;21468;-56
2022/06/13 14:20:56;;;;;;;3.77;2.67;;;;;;;16.66;81.29;98968.85;1772303;80;21012;-60
2022/06/13 14:23:33;;;;;;;5.83;2.70;;;;;;;16.64;82.25;98967.66;1767024;81;21036;-61
2022/06/13 14:25:59;;;;;;;4.97;2.33;;;;;;;16.64;82.13;98964.16;1735286;81;21059;-56
2022/06/13 14:28:28;;;;;;;5.37;2.67;;;;;;;16.62;83.09;98962.13;1750106;80;21483;-59
2022/06/13 14:31:06;;;;;;;5.72;2.90;;;;;;;16.63;82.95;98966.48;1746759;81;21070;-58
2022/06/13 14:36:54;;;;;;;3.55;2.33;;;;;;;16.70;83.33;98968.97;1754420;81;21019;-59
2022/06/13 14:39:35;;;;;;;5.15;2.87;;;;;;;16.78;83.00;98958.52;1773398;81;21016;-60
2022/06/13 14:42:24;;;;;;;10.68;2.58;;;;;;;16.80;83.48;98951.25;1758264;80;21501;-61
2022/06/13 14:45:12;;;;;;;5.12;2.60;;;;;;;16.87;82.47;98943.64;1772657;79;21151;-51
2022/06/13 14:48:11;;;;;;;4.17;2.72;;;;;;;16.89;82.02;98939.86;1776341;79;21429;-55
2022/06/13 14:50:49;;;;;;;4.12;2.87;;;;;;;16.90;81.79;98947.36;1768898;80;20999;-58
2022/06/13 14:53:36;;;;;;;;;;;;;;;16.89;81.43;98935.88;1762610;79;21508;-59
2022/06/13 14:56:16;;;;;;;4.80;2.52;;;;;;;16.85;82.51;98935.80;1761385;80;20104;-56
2022/06/13 14:58:53;;;;;;;4.55;3.27;;;;;;;16.93;81.60;98931.63;1790600;80;21022;-57
2022/06/13 15:01:45;;;;;;;4.15;2.95;;;;;;;16.98;81.79;98938.72;1761048;79;21022;-60
2022/06/13 15:04:21;;;;;;;8.28;3.05;;;;;;;17.02;81.07;98937.46;1779052;80;21556;-59
2022/06/13 15:06:58;;;;;;;4.08;3.27;;;;;;;16.99;81.55;98919.13;1774893;80;21007;-56
2022/06/13 15:09:48;;;;;;;3.62;3.17;;;;;;;17.01;82.09;98920.70;1766743;80;21535;-58
2022/06/13 15:12:24;;;;;;;7.33;3.87;;;;;;;17.13;81.84;98923.23;1730939;82;21484;-55
2022/06/13 15:14:58;;;;;;;9.65;4.53;;;;;;;17.25;83.11;98914.19;1748508;81;21533;-59
2022/06/13 15:17:25;;;;;;;6.05;3.70;;;;;;;17.41;82.59;98914.99;1755610;82;21034;-58
2022/06/13 15:19:57;;;;;;;9.23;4.53;;;;;;;17.56;82.41;98913.59;1755935;82;21345;-57
2022/06/13 15:22:30;;;;;;;7.67;4.60;;;;;;;17.72;82.35;98909.06;1755681;82;20979;-54
2022/06/13 15:25:00;;;;;;;8.70;4.67;;;;;;;17.87;81.36;98916.16;1755789;82;20975;-57
2022/06/13 15:27:26;;;;;;;8.28;5.00;;;;;;;18.04;81.17;98915.92;1755641;82;21504;-58
2022/06/13 15:30:06;;;;;;;12.17;5.83;;;;;;;18.10;81.72;98921.17;1756173;82;20963;-54
2022/06/13 15:32:40;;;;;;;8.80;6.00;;;;;;;18.17;80.80;98928.47;1754172;80;21491;-62
2022/06/13 15:35:16;;;;;;;9.65;5.05;;;;;;;18.18;80.58;98935.45;1755913;81;21171;-58